aviador You're here:

UTAM Decoded Metar

MARY in RUSSIA
Report Time2017-08-24 06:00:00
UTC Time2017-08-24 06:59:24
Flight Rules vfr VFR
Wind330° at 06 kt
W.Decomp.*RWY 36: 5.0 kt HW 3.4 kt LCW
W.Rank330° ranks 7
Current wind is below 330° avg. (8.2)
Visibility9999 m
Phenomena:N/A
Clouds:N/A
Expected CloudBase > 10,000 ft AGL from Temp-Dew spread
CeilingNone
Temp29°C (ISA +15)
Dew Point04°C (20% RH)
Heat Index27.5°C
AAT25.5°C
QNH1012 hPa
Density Alt2,648 ft
Elevation728 ft
Report Wrong Elevation
Raw Report
METAR UTAM 240600Z 33006KT CAVOK 29/04 Q1012 NOSIG=

Extra information for UTAM:More info

Metar Taf Metar & Taf Last 4 Metars F.Rules Stats Wind Profile Meteogram Temp Stats Airport Information Weather charts Add Link Nearby VenuesMetar ALERT Operation Metar Decoded Social comments